Time;durP1;ratioP1;P1;durP2;ratioP2;P2;SDS_P1;SDS_P2;PMS_P1;PMS_P2;Temp;Humidity;BMP_temperature;BMP_pressure;BME280_temperature;BME280_humidity;BME280_pressure;Samples;Min_cycle;Max_cycle;Signal;HPM_P1;HPM_P2
2021/09/02 00:00:04;;;;;;;7.05;3.90;;;;;;;13.96;75.97;98944.28;1705610;84;21051;-67
2021/09/02 00:02:32;;;;;;;5.50;3.15;;;;;;;13.92;76.24;98941.95;1714899;83;21042;-67
2021/09/02 00:04:59;;;;;;;5.60;3.40;;;;;;;13.92;76.26;98938.62;1721957;82;21528;-67
2021/09/02 00:07:25;;;;;;;10.38;4.10;;;;;;;13.92;76.35;98941.37;1735494;81;21027;-68
2021/09/02 00:09:51;;;;;;;;;;;;;;;13.93;76.43;98938.89;1728865;82;21457;-68
2021/09/02 00:12:17;;;;;;;5.65;3.37;;;;;;;13.93;76.53;98946.28;1720174;82;20429;-69
2021/09/02 00:14:44;;;;;;;6.03;3.90;;;;;;;13.83;76.93;98937.78;1719783;82;21030;-69
2021/09/02 00:17:12;;;;;;;6.65;3.35;;;;;;;13.78;77.20;98935.16;1728342;81;21071;-68
2021/09/02 00:19:38;;;;;;;6.90;3.17;;;;;;;13.76;77.40;98936.60;1725953;82;20991;-68
2021/09/02 00:22:05;;;;;;;5.65;3.30;;;;;;;13.77;77.46;98937.67;1725168;82;21066;-69
2021/09/02 00:24:31;;;;;;;;;;;;;;;13.80;77.46;98941.70;1735405;83;20986;-68
2021/09/02 00:26:58;;;;;;;5.58;3.25;;;;;;;13.77;77.57;98941.77;1729178;82;20099;-68
2021/09/02 00:29:24;;;;;;;5.22;3.65;;;;;;;13.63;77.90;98939.66;1718095;82;21594;-67
2021/09/02 00:31:50;;;;;;;6.28;3.37;;;;;;;13.58;78.07;98939.77;1716392;82;21106;-68
2021/09/02 00:34:17;;;;;;;6.03;3.45;;;;;;;13.53;78.24;98951.41;1720172;82;21022;-70
2021/09/02 00:36:43;;;;;;;5.00;3.37;;;;;;;13.49;78.39;98946.30;1680396;84;21110;-69
2021/09/02 00:39:10;;;;;;;5.65;3.33;;;;;;;13.46;78.56;98947.73;1683362;83;21545;-69
2021/09/02 00:41:37;;;;;;;5.40;2.87;;;;;;;13.43;78.63;98945.05;1680452;83;21067;-69
2021/09/02 00:44:04;;;;;;;6.90;2.95;;;;;;;13.42;78.66;98945.37;1712429;82;21055;-68
2021/09/02 00:46:30;;;;;;;5.70;3.00;;;;;;;13.42;78.70;98948.91;1722556;82;21278;-68
2021/09/02 00:48:56;;;;;;;;;;;;;;;13.44;78.71;98954.06;1713697;82;21062;-68
2021/09/02 00:51:23;;;;;;;5.40;3.45;;;;;;;13.44;78.72;98954.06;1726804;81;20110;-68
2021/09/02 00:53:52;;;;;;;5.75;3.37;;;;;;;13.37;78.97;98953.12;1715543;82;21003;-69
2021/09/02 00:56:19;;;;;;;5.65;3.45;;;;;;;13.32;79.19;98957.33;1724941;81;21067;-69
2021/09/02 00:58:48;;;;;;;5.40;3.60;;;;;;;13.30;79.39;98960.94;1729038;82;21458;-68
2021/09/02 01:01:17;;;;;;;5.78;3.50;;;;;;;13.28;79.51;98960.45;1703576;82;21020;-67
2021/09/02 01:03:44;;;;;;;5.12;3.20;;;;;;;13.27;79.70;98959.38;1716464;82;21014;-68
2021/09/02 01:06:13;;;;;;;5.67;3.40;;;;;;;13.27;79.81;98961.56;1722375;82;21083;-68
2021/09/02 01:08:40;;;;;;;5.00;3.15;;;;;;;13.29;79.86;98966.14;1716585;83;21078;-69
2021/09/02 01:11:06;;;;;;;;;;;;;;;13.29;79.95;98956.58;1717807;82;21035;-69
2021/09/02 01:13:33;;;;;;;8.10;3.05;;;;;;;13.29;80.03;98962.05;1719303;82;20108;-69
2021/09/02 01:15:59;;;;;;;4.37;3.02;;;;;;;13.24;80.20;98956.71;1724186;82;21027;-68
2021/09/02 01:18:25;;;;;;;4.67;3.10;;;;;;;13.23;80.30;98954.27;1716239;83;21558;-69
2021/09/02 01:20:52;;;;;;;5.22;3.40;;;;;;;13.23;80.30;98956.45;1721585;81;21043;-69
2021/09/02 01:23:19;;;;;;;;;;;;;;;13.21;80.35;98955.97;1728952;82;21569;-69
2021/09/02 01:25:45;;;;;;;4.45;3.15;;;;;;;13.21;80.42;98952.42;1724322;81;20115;-68
2021/09/02 01:28:12;;;;;;;6.30;3.47;;;;;;;13.12;80.72;98948.78;1704100;82;21700;-67
2021/09/02 01:30:39;;;;;;;4.65;2.55;;;;;;;13.07;80.94;98948.33;1725857;81;21106;-68
2021/09/02 01:33:13;;;;;;;7.10;3.30;;;;;;;13.06;81.07;98945.88;1732707;82;21023;-68
2021/09/02 01:35:39;;;;;;;6.42;3.77;;;;;;;13.00;81.18;98947.94;1726179;82;21011;-67
2021/09/02 01:38:07;;;;;;;6.30;3.83;;;;;;;13.04;81.27;98956.33;1722471;82;21007;-67
2021/09/02 01:40:43;;;;;;;4.70;3.20;;;;;;;13.07;81.33;98951.61;1725465;83;21106;-69
2021/09/02 01:43:11;;;;;;;5.20;3.50;;;;;;;13.04;81.46;98946.77;1728951;82;20983;-68
2021/09/02 01:45:39;;;;;;;5.12;3.62;;;;;;;13.03;81.67;98949.23;1713849;82;21079;-68
2021/09/02 01:48:05;;;;;;;5.62;3.67;;;;;;;13.04;81.80;98952.23;1721947;82;21011;-69
2021/09/02 01:50:35;;;;;;;6.33;3.27;;;;;;;13.04;81.85;98951.64;1732096;82;21016;-69
2021/09/02 01:53:06;;;;;;;6.90;3.98;;;;;;;13.06;81.90;98943.16;1727715;82;20995;-68
2021/09/02 01:55:32;;;;;;;6.40;3.30;;;;;;;13.05;81.97;98946.44;1736783;81;21003;-69
2021/09/02 01:57:59;;;;;;;5.10;3.55;;;;;;;13.04;82.09;98950.86;1728052;82;21569;-68
2021/09/02 02:00:25;;;;;;;6.72;3.65;;;;;;;13.03;82.27;98953.34;1732172;82;20986;-69
2021/09/02 02:02:51;;;;;;;5.10;3.30;;;;;;;13.02;82.39;98954.44;1728993;82;21470;-69
2021/09/02 02:05:18;;;;;;;5.80;4.10;;;;;;;13.03;82.48;98943.77;1726189;82;21022;-67
2021/09/02 02:07:44;;;;;;;;;;;;;;;13.03;82.58;98941.04;1736839;82;21604;-69
2021/09/02 02:10:18;;;;;;;9.08;3.83;;;;;;;13.00;82.77;98942.47;1735845;81;20138;-68
2021/09/02 02:12:44;;;;;;;5.55;3.70;;;;;;;12.94;83.08;98941.75;1726772;82;21066;-67
2021/09/02 02:15:12;;;;;;;5.80;4.08;;;;;;;12.95;83.30;98947.48;1731219;82;21019;-67
2021/09/02 02:17:39;;;;;;;6.75;4.12;;;;;;;13.01;83.41;98940.52;1729200;82;21019;-69
2021/09/02 02:20:09;;;;;;;6.67;4.05;;;;;;;13.02;83.51;98942.95;1738689;81;20947;-69
2021/09/02 02:22:35;;;;;;;6.70;3.90;;;;;;;13.04;83.63;98943.45;1735470;81;21498;-68
2021/09/02 02:25:02;;;;;;;5.17;4.00;;;;;;;13.09;83.69;98943.91;1728359;82;21025;-67
2021/09/02 02:27:28;;;;;;;8.35;4.33;;;;;;;13.14;83.71;98945.20;1723952;81;21087;-69
2021/09/02 02:29:55;;;;;;;8.83;4.35;;;;;;;13.20;83.72;98948.06;1735796;82;20971;-69
2021/09/02 02:32:21;;;;;;;6.20;3.80;;;;;;;13.25;83.71;98950.69;1743967;81;21011;-68
2021/09/02 02:34:48;;;;;;;7.87;4.28;;;;;;;13.29;83.67;98947.56;1737729;82;21018;-68
2021/09/02 02:37:14;;;;;;;5.65;3.70;;;;;;;13.31;83.72;98957.09;1743429;81;21521;-68
2021/09/02 02:39:40;;;;;;;7.90;3.60;;;;;;;13.34;83.74;98948.83;1728902;82;20992;-67
2021/09/02 02:42:08;;;;;;;7.03;4.10;;;;;;;13.37;83.74;98949.02;1715031;82;22138;-69
2021/09/02 02:44:35;;;;;;;6.85;3.87;;;;;;;13.41;83.70;98955.49;1734250;82;21472;-68
2021/09/02 02:47:01;;;;;;;;;;;;;;;13.44;83.63;98953.50;1742522;82;21093;-67
2021/09/02 02:49:27;;;;;;;4.40;3.43;;;;;;;13.46;83.62;98953.20;1735125;82;20411;-68
2021/09/02 02:51:54;;;;;;;7.17;3.77;;;;;;;13.45;83.75;98952.95;1740026;82;21015;-68
2021/09/02 02:54:20;;;;;;;8.70;4.03;;;;;;;13.49;83.67;98951.22;1734090;82;20970;-68
2021/09/02 02:56:47;;;;;;;5.78;4.12;;;;;;;13.54;83.58;98957.10;1724233;82;21042;-68
2021/09/02 02:59:14;;;;;;;6.65;4.15;;;;;;;13.57;83.51;98955.14;1715501;83;21034;-68
2021/09/02 03:01:41;;;;;;;7.33;4.40;;;;;;;13.58;83.43;98956.18;1740404;81;21018;-68
2021/09/02 03:04:07;;;;;;;7.28;3.90;;;;;;;13.60;83.36;98956.70;1730388;82;21047;-68
2021/09/02 03:06:33;;;;;;;;;;;;;;;13.62;83.29;98948.16;1734042;82;21082;-68
2021/09/02 03:09:02;;;;;;;6.55;4.00;;;;;;;13.64;83.20;98950.83;1726435;83;20107;-68
2021/09/02 03:11:33;;;;;;;8.85;4.28;;;;;;;13.60;83.20;98952.59;1734480;81;21018;-69
2021/09/02 03:14:01;;;;;;;7.30;4.40;;;;;;;13.64;83.06;98952.20;1737477;81;20975;-69
2021/09/02 03:16:27;;;;;;;;;;;;;;;13.67;82.85;98952.16;1738420;82;21073;-70
2021/09/02 03:18:53;;;;;;;6.70;3.62;;;;;;;13.67;82.66;98949.42;1733288;82;20398;-68
2021/09/02 03:21:20;;;;;;;6.47;4.30;;;;;;;13.62;82.62;98946.80;1727495;81;21059;-67
2021/09/02 03:23:47;;;;;;;6.83;4.08;;;;;;;13.64;82.50;98947.31;1712485;82;21039;-68
2021/09/02 03:26:13;;;;;;;5.17;3.87;;;;;;;13.65;82.30;98955.74;1730317;83;21015;-68
2021/09/02 03:28:40;;;;;;;8.13;3.98;;;;;;;13.66;82.22;98958.18;1732920;82;21054;-67
2021/09/02 03:31:07;;;;;;;4.20;2.95;;;;;;;13.66;82.11;98958.73;1710485;82;21608;-68
2021/09/02 03:33:33;;;;;;;;;;;;;;;13.68;82.04;98964.14;1733151;82;21024;-68
2021/09/02 03:36:00;;;;;;;7.90;3.75;;;;;;;13.71;81.92;98965.46;1733539;81;20104;-68
2021/09/02 03:38:26;;;;;;;;;;;;;;;13.65;81.88;98968.05;1702383;82;20999;-67
2021/09/02 03:40:52;;;;;;;6.40;3.60;;;;;;;13.67;81.90;98974.03;1704769;83;20504;-68
2021/09/02 03:43:20;;;;;;;5.72;3.65;;;;;;;13.65;81.81;98971.59;1710194;82;21000;-68
2021/09/02 03:45:48;;;;;;;7.35;3.83;;;;;;;13.66;81.64;98962.28;1712035;83;21079;-67
2021/09/02 03:48:15;;;;;;;5.53;3.80;;;;;;;13.67;81.46;98971.30;1718540;82;21036;-69
2021/09/02 03:50:43;;;;;;;8.73;4.05;;;;;;;13.70;81.38;98967.94;1717541;82;21557;-69
2021/09/02 03:53:09;;;;;;;;;;;;;;;13.73;81.23;98977.70;1714308;82;21028;-69
2021/09/02 03:55:35;;;;;;;6.35;3.77;;;;;;;13.78;81.07;98984.98;1719712;82;20095;-68
2021/09/02 03:58:02;;;;;;;5.42;3.60;;;;;;;13.73;80.96;98978.25;1715878;83;21008;-68
2021/09/02 04:00:28;;;;;;;4.70;3.45;;;;;;;13.73;80.87;98991.93;1733338;81;21574;-69
2021/09/02 04:02:55;;;;;;;6.03;3.60;;;;;;;13.77;80.71;98995.67;1729806;82;21000;-68
2021/09/02 04:05:21;;;;;;;;;;;;;;;13.80;80.51;98988.20;1711838;82;21946;-67
2021/09/02 04:07:47;;;;;;;6.15;3.30;;;;;;;13.83;80.36;98999.89;1712966;82;20434;-68
2021/09/02 04:10:14;;;;;;;8.13;3.72;;;;;;;13.77;80.15;98998.41;1718322;82;20991;-69
2021/09/02 04:12:40;;;;;;;6.40;4.00;;;;;;;13.75;80.03;99003.36;1710875;83;21518;-69
2021/09/02 04:15:08;;;;;;;6.00;3.85;;;;;;;13.74;79.89;98996.30;1720300;82;20996;-68
2021/09/02 04:17:34;;;;;;;9.58;3.80;;;;;;;13.74;79.68;98988.09;1714713;82;20961;-67
2021/09/02 04:20:00;;;;;;;7.70;4.20;;;;;;;13.71;79.63;99000.44;1707882;83;21494;-68
2021/09/02 04:22:27;;;;;;;6.80;3.98;;;;;;;13.73;79.58;98998.22;1712934;82;21041;-67
2021/09/02 04:24:55;;;;;;;7.83;3.60;;;;;;;13.78;79.34;98993.19;1693905;82;20959;-69
2021/09/02 04:27:21;;;;;;;5.90;3.60;;;;;;;13.78;79.31;98993.19;1682180;85;21133;-69
2021/09/02 04:29:47;;;;;;;5.72;3.35;;;;;;;13.79;79.09;98991.49;1688201;85;21046;-68
2021/09/02 04:32:14;;;;;;;;;;;;;;;13.79;78.87;99002.99;1725695;82;21051;-69
2021/09/02 04:34:40;;;;;;;7.17;4.03;;;;;;;13.75;78.68;99000.63;1728963;82;20414;-70
2021/09/02 04:37:06;;;;;;;7.00;3.62;;;;;;;13.69;78.81;99002.69;1743088;81;21062;-70
2021/09/02 04:39:33;;;;;;;;;;;;;;;13.71;78.72;99007.27;1728145;82;21498;-72
2021/09/02 04:41:59;;;;;;;6.97;3.77;;;;;;;13.71;78.68;99005.13;1725285;83;20106;-70
2021/09/02 04:44:26;;;;;;;7.53;3.60;;;;;;;13.64;78.77;99008.84;1723049;82;21685;-71
2021/09/02 04:46:52;;;;;;;6.17;3.62;;;;;;;13.66;78.76;99010.70;1725619;82;21074;-69
2021/09/02 04:49:19;;;;;;;8.38;5.03;;;;;;;13.67;78.61;99005.48;1725586;82;21628;-70
2021/09/02 04:51:45;;;;;;;9.58;5.40;;;;;;;13.70;78.49;99007.60;1725584;83;21050;-70
2021/09/02 04:54:12;;;;;;;7.10;4.72;;;;;;;13.74;78.35;99014.89;1732930;82;20999;-71
2021/09/02 05:00:10;;;;;;;6.60;3.53;;;;;;;13.81;77.71;99014.45;1801156;79;22940;-67
2021/09/02 05:02:36;;;;;;;7.15;3.92;;;;;;;13.73;77.68;99017.36;1747458;82;21019;-69
2021/09/02 05:05:03;;;;;;;7.55;4.12;;;;;;;13.73;77.83;99019.28;1731413;82;21573;-69
2021/09/02 05:07:33;;;;;;;7.55;3.80;;;;;;;13.77;77.83;99014.27;1749388;82;21047;-70
2021/09/02 05:10:06;;;;;;;7.10;3.72;;;;;;;13.79;77.49;99012.02;1746443;82;21418;-72
2021/09/02 05:12:32;;;;;;;6.05;3.58;;;;;;;13.79;77.11;99012.56;1751382;82;21035;-67
2021/09/02 05:15:00;;;;;;;7.28;3.80;;;;;;;13.78;77.12;99010.38;1746310;82;21086;-66
2021/09/02 05:17:27;;;;;;;7.62;3.62;;;;;;;13.81;76.89;99011.16;1722647;83;21611;-66
2021/09/02 05:19:54;;;;;;;6.28;3.75;;;;;;;13.84;76.74;99011.91;1722743;83;21070;-66
2021/09/02 05:22:21;;;;;;;;;;;;;;;13.90;76.73;99013.94;1725504;83;21097;-66
2021/09/02 05:24:47;;;;;;;6.37;3.45;;;;;;;14.01;76.58;99005.73;1743017;82;20170;-67
2021/09/02 05:27:13;;;;;;;;;;;;;;;14.07;76.43;99006.41;1755316;82;21564;-67
2021/09/02 05:29:40;;;;;;;13.35;3.35;;;;;;;14.18;75.93;99008.58;1752664;82;20106;-67
2021/09/02 05:32:07;;;;;;;8.68;3.83;;;;;;;14.21;75.69;99006.58;1748279;82;21102;-67
2021/09/02 05:34:34;;;;;;;9.45;3.65;;;;;;;14.28;75.32;99008.88;1722916;83;21605;-67
2021/09/02 05:37:02;;;;;;;4.72;3.02;;;;;;;14.32;75.00;99005.76;1722857;83;21102;-67
2021/09/02 05:39:29;;;;;;;7.53;3.17;;;;;;;14.39;74.99;99008.33;1723064;83;21077;-67
2021/09/02 05:41:56;;;;;;;8.33;3.50;;;;;;;14.55;74.73;99008.75;1723018;83;21031;-68
2021/09/02 05:44:22;;;;;;;8.18;3.50;;;;;;;14.66;73.73;99010.09;1744699;82;20994;-68
2021/09/02 05:46:48;;;;;;;;;;;;;;;14.66;72.97;99009.28;1734835;82;21038;-67
2021/09/02 05:49:16;;;;;;;6.35;3.27;;;;;;;14.63;72.08;99022.23;1728648;82;20140;-67
2021/09/02 05:51:44;;;;;;;7.25;3.42;;;;;;;14.43;71.84;99029.86;1722782;83;21580;-68
2021/09/02 05:54:10;;;;;;;6.37;3.30;;;;;;;14.37;71.63;99024.84;1723143;83;21059;-68
2021/09/02 05:56:36;;;;;;;;;;;;;;;14.31;71.34;99025.48;1742871;82;21522;-67
2021/09/02 05:59:03;;;;;;;6.78;3.17;;;;;;;14.25;70.87;99026.73;1738070;82;20110;-68
2021/09/02 06:01:29;;;;;;;;;;;;;;;14.10;70.96;99022.23;1747134;82;21035;-67
2021/09/02 06:03:55;;;;;;;7.22;3.08;;;;;;;14.02;70.71;99026.52;1723743;82;20113;-69
2021/09/02 06:06:22;;;;;;;5.78;2.83;;;;;;;13.95;71.01;99025.59;1737001;82;21494;-68
2021/09/02 06:08:48;;;;;;;;;;;;;;;14.00;71.08;99026.00;1751732;82;21026;-68
2021/09/02 06:11:15;;;;;;;5.30;2.87;;;;;;;14.04;70.55;99027.55;1736456;82;20496;-69
2021/09/02 06:13:41;;;;;;;5.60;2.75;;;;;;;13.93;70.23;99042.86;1752433;82;21510;-71
2021/09/02 06:16:07;;;;;;;5.72;2.98;;;;;;;13.98;70.17;99045.23;1734320;82;20995;-70
2021/09/02 06:18:34;;;;;;;5.80;2.98;;;;;;;14.09;69.44;99055.63;1723110;82;21070;-70
2021/09/02 06:21:00;;;;;;;;;;;;;;;14.17;68.78;99052.70;1725767;83;21070;-70
2021/09/02 06:23:27;;;;;;;7.35;3.47;;;;;;;14.24;68.78;99042.13;1723326;83;20109;-71
2021/09/02 06:25:55;;;;;;;5.42;2.77;;;;;;;14.32;67.68;99058.59;1743763;82;21067;-70
2021/09/02 06:28:22;;;;;;;5.00;3.12;;;;;;;14.54;67.62;99051.50;1752855;82;21549;-74
2021/09/02 06:30:48;;;;;;;;;;;;;;;14.79;66.50;99055.74;1728487;82;21031;-70
2021/09/02 06:33:14;;;;;;;5.90;2.87;;;;;;;15.00;64.73;99046.39;1725502;82;20526;-71
2021/09/02 06:35:41;;;;;;;7.40;2.90;;;;;;;15.06;64.47;99049.78;1684760;85;21055;-69
2021/09/02 06:38:07;;;;;;;4.95;2.20;;;;;;;15.28;64.05;99068.89;1741047;82;21035;-71
2021/09/02 06:40:36;;;;;;;8.23;2.70;;;;;;;15.63;63.08;99060.19;1753184;82;20971;-69
2021/09/02 06:43:04;;;;;;;7.45;2.45;;;;;;;15.94;62.58;99056.17;1747763;82;20951;-72
2021/09/02 06:45:30;;;;;;;;;;;;;;;16.24;61.39;99054.39;1725879;83;21062;-74
2021/09/02 06:47:56;;;;;;;5.17;2.37;;;;;;;16.39;59.24;99053.89;1739268;82;20122;-72
2021/09/02 06:50:22;;;;;;;;;;;;;;;16.29;56.76;99072.64;1755880;82;21019;-73
2021/09/02 06:52:49;;;;;;;4.83;2.02;;;;;;;16.31;54.70;99063.50;1745018;82;20413;-74
2021/09/02 06:55:15;;;;;;;;;;;;;;;16.35;54.93;99072.14;1746439;82;21015;-72
2021/09/02 06:57:41;;;;;;;7.12;1.90;;;;;;;16.59;51.18;99055.71;1752646;82;20126;-73
2021/09/02 07:00:08;;;;;;;;;;;;;;;16.59;51.27;99054.34;1743654;81;21036;-74
2021/09/02 07:02:34;;;;;;;5.60;1.87;;;;;;;16.63;49.93;99060.80;1720909;82;20142;-73
2021/09/02 07:05:04;;;;;;;;;;;;;;;16.32;50.45;99068.68;1741543;82;21078;-73
2021/09/02 07:07:30;;;;;;;5.40;2.08;;;;;;;15.98;51.19;99063.20;1721386;82;20482;-73
2021/09/02 07:09:56;;;;;;;;;;;;;;;15.63;52.22;99080.21;1715711;83;21028;-70
2021/09/02 07:12:23;;;;;;;5.60;1.95;;;;;;;15.54;52.88;99073.10;1709173;84;20106;-71
2021/09/02 07:14:49;;;;;;;4.65;1.75;;;;;;;15.66;53.14;99073.30;1714242;82;21517;-70
2021/09/02 07:17:16;;;;;;;6.17;1.55;;;;;;;15.93;53.19;99069.67;1725589;82;21128;-70
2021/09/02 07:19:42;;;;;;;;;;;;;;;16.01;51.98;99071.37;1723745;82;21542;-70
2021/09/02 07:22:08;;;;;;;6.65;1.80;;;;;;;15.92;51.49;99074.91;1724096;81;20089;-72
2021/09/02 07:24:34;;;;;;;;;;;;;;;15.79;50.51;99071.77;1730542;82;21530;-70
2021/09/02 07:27:04;;;;;;;7.58;1.87;;;;;;;15.71;51.18;99073.94;1738839;81;20127;-70
2021/09/02 07:29:31;;;;;;;3.80;1.45;;;;;;;15.73;49.43;99064.80;1738882;82;21717;-70
2021/09/02 07:31:58;;;;;;;4.67;1.85;;;;;;;15.89;49.24;99070.63;1735599;82;21117;-69
2021/09/02 07:34:24;;;;;;;5.70;1.90;;;;;;;16.13;49.26;99074.25;1729897;82;21007;-69
2021/09/02 07:36:50;;;;;;;;;;;;;;;16.35;48.38;99083.13;1740909;82;21542;-70
2021/09/02 07:39:18;;;;;;;4.67;1.77;;;;;;;16.31;48.11;99072.55;1716128;81;20118;-69
2021/09/02 07:41:44;;;;;;;;;;;;;;;16.09;48.23;99078.22;1712661;82;21074;-69
2021/09/02 07:44:10;;;;;;;3.72;1.55;;;;;;;16.01;48.99;99079.61;1732564;82;20103;-70
2021/09/02 07:46:37;;;;;;;;;;;;;;;16.07;47.76;99074.19;1741732;82;21107;-69
2021/09/02 07:49:03;;;;;;;4.20;1.55;;;;;;;16.21;47.45;99066.59;1723583;81;20090;-69
2021/09/02 07:51:29;;;;;;;;;;;;;;;16.25;47.58;99050.52;1720529;82;21543;-69
2021/09/02 07:53:56;;;;;;;3.72;1.47;;;;;;;16.19;47.48;99071.02;1739507;82;20100;-70
2021/09/02 07:56:22;;;;;;;;;;;;;;;16.00;48.25;99082.10;1741725;82;21007;-69
2021/09/02 07:58:48;;;;;;;5.15;1.85;;;;;;;15.79;48.80;99069.03;1712582;81;20121;-69
2021/09/02 08:01:16;;;;;;;3.08;1.50;;;;;;;15.52;50.34;99072.63;1722844;83;21052;-70
2021/09/02 08:03:43;;;;;;;4.22;1.40;;;;;;;15.66;50.53;99067.81;1723093;83;21035;-68
2021/09/02 08:06:09;;;;;;;;;;;;;;;16.05;49.35;99077.84;1725812;83;21054;-69
2021/09/02 08:08:36;;;;;;;3.17;1.50;;;;;;;16.27;48.03;99070.21;1725129;82;20140;-69
2021/09/02 08:11:02;;;;;;;5.83;1.62;;;;;;;16.34;48.52;99079.33;1725307;82;21525;-70
2021/09/02 08:13:29;;;;;;;;;;;;;;;16.49;48.27;99074.70;1725822;83;20974;-70
2021/09/02 08:15:57;;;;;;;6.95;1.42;;;;;;;16.50;47.59;99076.89;1723096;82;20510;-70
2021/09/02 08:18:25;;;;;;;4.45;1.30;;;;;;;16.32;46.80;99078.86;1722969;83;21031;-69
2021/09/02 08:20:51;;;;;;;3.42;1.30;;;;;;;16.28;46.54;99080.63;1723373;82;21577;-70
2021/09/02 08:23:18;;;;;;;4.42;1.25;;;;;;;16.20;47.30;99086.37;1753221;82;20987;-68
2021/09/02 08:25:45;;;;;;;5.05;1.52;;;;;;;16.21;48.02;99094.05;1752687;82;21039;-70
2021/09/02 08:28:11;;;;;;;4.08;1.40;;;;;;;16.15;46.61;99074.20;1753381;82;21025;-70
2021/09/02 08:30:37;;;;;;;;;;;;;;;15.93;47.06;99074.36;1740662;82;21573;-70
2021/09/02 08:33:03;;;;;;;3.83;1.10;;;;;;;15.88;47.79;99096.45;1723376;83;20136;-70
2021/09/02 08:35:32;;;;;;;4.42;1.52;;;;;;;15.96;47.37;99085.25;1723001;83;21130;-70
2021/09/02 08:38:02;;;;;;;4.40;1.40;;;;;;;16.23;47.49;99078.04;1723423;83;21451;-69
2021/09/02 08:40:32;;;;;;;3.47;1.37;;;;;;;16.48;45.40;99069.52;1698190;83;21022;-70
2021/09/02 08:42:59;;;;;;;5.33;1.30;;;;;;;16.61;43.97;99050.15;1723048;83;21605;-70
2021/09/02 08:45:27;;;;;;;2.45;1.30;;;;;;;16.70;42.72;99052.29;1723282;82;21038;-70
2021/09/02 08:47:55;;;;;;;5.20;1.25;;;;;;;16.67;42.63;99057.64;1723537;83;21011;-69
2021/09/02 08:50:24;;;;;;;;;;;;;;;16.73;42.48;99061.25;1748256;82;21007;-70
2021/09/02 08:52:52;;;;;;;3.85;1.52;;;;;;;16.79;43.26;99052.27;1753362;82;20134;-69
2021/09/02 08:55:18;;;;;;;3.85;1.57;;;;;;;16.84;43.15;99070.75;1753247;82;21046;-70
2021/09/02 08:57:47;;;;;;;5.17;1.32;;;;;;;16.89;42.35;99058.78;1753234;82;21050;-69
2021/09/02 09:00:14;;;;;;;7.85;1.50;;;;;;;16.75;41.79;99065.87;1750810;82;21617;-70
2021/09/02 09:02:47;;;;;;;5.17;1.37;;;;;;;16.65;44.12;99064.05;1753216;82;20968;-70
2021/09/02 09:05:12;;;;;;;3.87;1.45;;;;;;;16.71;44.53;99066.84;1751567;82;21023;-70
2021/09/02 09:07:41;;;;;;;4.05;1.22;;;;;;;16.66;44.72;99063.70;1753104;82;20951;-69
2021/09/02 09:10:21;;;;;;;4.37;1.72;;;;;;;16.74;45.00;99063.44;1753033;82;21051;-69
2021/09/02 09:12:55;;;;;;;3.60;1.40;;;;;;;16.85;45.05;99066.06;1753222;82;21019;-69
2021/09/02 09:15:28;;;;;;;5.20;1.57;;;;;;;17.03;44.17;99066.81;1752879;82;21137;-71
2021/09/02 09:18:17;;;;;;;4.50;1.57;;;;;;;17.21;43.29;99055.41;1753115;82;21550;-67
2021/09/02 09:21:08;;;;;;;5.58;1.60;;;;;;;17.44;42.19;99069.66;1752904;82;21102;-67
2021/09/02 09:23:58;;;;;;;5.78;1.52;;;;;;;17.49;41.76;99064.55;1722746;82;21097;-68
2021/09/02 09:26:26;;;;;;;6.05;1.10;;;;;;;17.45;41.71;99063.59;1723120;83;21055;-67
2021/09/02 09:29:04;;;;;;;4.80;1.45;;;;;;;17.13;39.98;99068.62;1749691;82;20972;-68
2021/09/02 09:31:35;;;;;;;3.50;1.45;;;;;;;16.72;40.67;99080.83;1750796;82;21047;-69
2021/09/02 09:34:04;;;;;;;3.77;1.25;;;;;;;16.56;41.24;99065.42;1753417;82;21525;-69
2021/09/02 09:36:36;;;;;;;2.25;1.17;;;;;;;16.55;42.88;99076.13;1753070;82;21086;-69
2021/09/02 09:39:12;;;;;;;4.78;1.65;;;;;;;16.59;42.80;99066.70;1735386;82;21014;-69
2021/09/02 09:41:44;;;;;;;5.65;1.42;;;;;;;16.53;43.45;99075.67;1723493;82;21034;-69
2021/09/02 09:44:51;;;;;;;5.53;1.57;;;;;;;16.52;42.95;99081.48;1819475;79;24165;-67
2021/09/02 09:47:19;;;;;;;6.25;1.35;;;;;;;16.44;43.06;99081.73;1808835;78;21069;-69
2021/09/02 09:49:50;;;;;;;4.42;1.17;;;;;;;16.46;42.66;99076.73;1827936;78;21585;-69
2021/09/02 09:52:33;;;;;;;2.65;1.25;;;;;;;16.39;42.72;99091.53;1828128;78;21086;-70
2021/09/02 09:55:12;;;;;;;3.30;1.17;;;;;;;16.31;43.89;99088.22;1828337;78;20999;-69
2021/09/02 09:57:41;;;;;;;3.67;1.60;;;;;;;16.25;42.94;99099.14;1825623;78;21486;-69
2021/09/02 10:00:10;;;;;;;4.10;1.20;;;;;;;15.98;43.59;99083.00;1828357;78;21633;-70
2021/09/02 10:02:42;;;;;;;4.75;1.32;;;;;;;15.84;43.78;99080.39;1828302;78;21002;-70
2021/09/02 10:05:11;;;;;;;4.50;1.52;;;;;;;15.82;44.32;99103.24;1823362;78;20983;-69
2021/09/02 10:07:39;;;;;;;3.90;1.40;;;;;;;15.86;43.71;99083.08;1762677;80;20979;-69
2021/09/02 10:10:09;;;;;;;3.92;1.52;;;;;;;15.97;44.02;99095.92;1792753;80;20986;-69
2021/09/02 10:12:37;;;;;;;3.37;1.30;;;;;;;16.08;43.11;99086.23;1792692;80;21646;-69
2021/09/02 10:15:10;;;;;;;3.25;1.25;;;;;;;16.08;41.89;99097.22;1792391;80;20955;-69
2021/09/02 10:17:37;;;;;;;4.35;1.32;;;;;;;15.97;42.85;99101.41;1764623;78;20988;-69
2021/09/02 10:20:09;;;;;;;4.00;1.65;;;;;;;15.88;43.60;99102.76;1806151;78;21014;-69
2021/09/02 10:22:35;;;;;;;3.15;1.20;;;;;;;15.89;44.05;99096.71;1796505;78;21062;-70
2021/09/02 10:25:04;;;;;;;3.47;1.30;;;;;;;15.91;42.54;99097.99;1809545;78;21043;-69
2021/09/02 10:27:34;;;;;;;5.08;1.45;;;;;;;15.92;42.67;99115.28;1700659;84;21122;-70
2021/09/02 10:30:02;;;;;;;3.47;1.00;;;;;;;15.87;41.77;99097.61;1721889;83;21031;-69
2021/09/02 10:32:28;;;;;;;3.90;1.37;;;;;;;15.79;41.96;99098.40;1693650;83;21032;-70
2021/09/02 10:35:11;;;;;;;4.05;1.52;;;;;;;15.80;41.99;99105.52;1720144;82;21111;-70
2021/09/02 10:37:43;;;;;;;3.50;1.32;;;;;;;15.84;41.32;99105.90;1700769;82;21015;-69
2021/09/02 10:40:26;;;;;;;3.60;1.35;;;;;;;15.83;41.67;99105.67;1736652;82;21028;-69
2021/09/02 10:42:57;;;;;;;3.75;1.30;;;;;;;15.81;41.34;99108.48;1734836;82;21055;-70
2021/09/02 10:45:31;;;;;;;4.95;1.37;;;;;;;15.72;40.89;99106.30;1696213;83;21039;-69
2021/09/02 10:48:06;;;;;;;7.08;2.15;;;;;;;15.56;40.79;99115.53;1658243;85;21503;-70
2021/09/02 10:50:40;;;;;;;5.53;1.22;;;;;;;15.48;40.66;99120.98;1692305;85;21118;-69
2021/09/02 10:53:16;;;;;;;4.30;1.67;;;;;;;15.58;40.78;99119.34;1692438;85;21067;-68
2021/09/02 10:55:53;;;;;;;3.72;1.30;;;;;;;15.75;40.41;99108.40;1705907;81;21036;-68
2021/09/02 10:58:45;;;;;;;4.20;1.57;;;;;;;15.87;40.63;99149.76;1739548;81;20999;-68
2021/09/02 11:01:27;;;;;;;5.75;2.17;;;;;;;15.87;41.42;99138.19;1758638;81;21550;-69
2021/09/02 11:04:00;;;;;;;5.92;1.50;;;;;;;15.75;42.21;99127.05;1718963;82;21127;-68
2021/09/02 11:06:27;;;;;;;4.65;1.92;;;;;;;15.60;42.66;99129.42;1768433;81;21028;-68
2021/09/02 11:08:54;;;;;;;4.97;1.42;;;;;;;15.44;42.98;99128.45;1768560;81;21000;-68
2021/09/02 11:11:22;;;;;;;3.58;1.37;;;;;;;15.37;43.24;99154.75;1768574;81;21044;-68
2021/09/02 11:13:53;;;;;;;5.25;1.65;;;;;;;15.25;43.69;99137.52;1784060;79;20984;-68
2021/09/02 11:16:21;;;;;;;4.92;1.40;;;;;;;15.25;43.97;99144.94;1815874;79;21004;-69
2021/09/02 11:18:55;;;;;;;3.80;1.47;;;;;;;15.37;44.77;99143.78;1816206;79;20987;-67
2021/09/02 11:21:27;;;;;;;2.85;1.52;;;;;;;15.56;44.34;99146.27;1814816;79;21027;-68
2021/09/02 11:24:02;;;;;;;5.22;1.57;;;;;;;15.70;44.19;99147.77;1685695;85;21051;-67
2021/09/02 11:26:36;;;;;;;3.12;1.60;;;;;;;15.80;44.14;99139.22;1763365;81;21051;-69
2021/09/02 11:29:05;;;;;;;3.67;1.55;;;;;;;16.00;43.90;99137.00;1763076;81;21094;-69
2021/09/02 11:31:31;;;;;;;4.35;1.55;;;;;;;16.19;43.75;99132.80;1685397;85;21055;-68
2021/09/02 11:33:58;;;;;;;3.37;1.32;;;;;;;16.28;41.79;99135.56;1749415;79;21112;-70
2021/09/02 11:36:26;;;;;;;3.65;1.20;;;;;;;16.31;38.66;99139.03;1755574;79;21027;-69
2021/09/02 11:39:08;;;;;;;6.35;0.88;;;;;;;16.22;38.20;99138.23;1778145;81;21129;-69
2021/09/02 11:41:35;;;;;;;6.22;1.65;;;;;;;16.04;38.97;99144.84;1778478;81;21573;-70
2021/09/02 11:44:02;;;;;;;2.65;1.50;;;;;;;15.76;39.63;99168.46;1780865;80;21031;-68
2021/09/02 11:46:30;;;;;;;4.10;1.35;;;;;;;15.60;41.05;99148.63;1784271;79;21589;-68
2021/09/02 11:48:58;;;;;;;4.50;1.25;;;;;;;15.57;41.53;99156.13;1782783;80;21110;-68
2021/09/02 11:51:27;;;;;;;2.87;1.40;;;;;;;15.56;41.88;99142.16;1784049;80;21684;-68